Rhinelander, WI (54501)

6:13 PM CDT on July 28, 2016 (GMT -0500)
2nd Lake - Moen Chain | | Change Station

Elev 1604 ft 45.66 °N, 89.30 °W | Updated 60 seconds ago

Mostly Cloudy
Mostly Cloudy
70.7 °F
Feels Like 75 °F
N
2.9
Wind Variable Wind from North
Gusts 2.9 mph

Today
High -- | Low -- °F
--% Chance of Precip.
Yesterday
High -- | Low -- °F
Precip. -- in
Pressure 30.03 in
Visibility 10.0 miles
Clouds Mostly Cloudy 5500 ft
Heat Index 75 °F
Dew Point 58 °F
Humidity 63%
Rainfall 0.00 in
Snow Depth Not available.
5:36 AM 8:30 PM
Waning Crescent, 28% visible
METAR KRHI 282253Z AUTO 08008KT 10SM BKN055 23/12 A3004 RMK AO2 SLP169 T02280122 TSNO
Pressure 30.03 in
Visibility 10.0 miles
Clouds Mostly Cloudy 5500 ft
Heat Index 75 °F
Dew Point 58 °F
Humidity 63%
Rainfall 0.00 in
Snow Depth Not available.
5:36 AM 8:30 PM
Waning Crescent, 28% visible
METAR KRHI 282253Z AUTO 08008KT 10SM BKN055 23/12 A3004 RMK AO2 SLP169 T02280122 TSNO

10-Day Weather Forecast

Almanac

Astronomy

Jul. 28, 2016 Rise Set
Actual Time
Civil Twilight
Nautical Twilight
Astronomical Twilight
Moon
Length of Visible Light
Length of Day
Tomorrow will be .
, % of the Moon is Illuminated

Today's Extremes

State Highs State Lows

Community

WunderPhotos

Upload Photos

1,928,226 photos uploaded!

WunderBlog® & News

Nearby

Air Quality

  Air Quality AQ Index Pollutant
Not available.

Snow Depth

Station Depth Elevation

Earthquake Activity

City Distance Mag. Time & Date
Minimum magnitude displayed is 2.5.

Coastal Water Temperatures

Place Temperature

Stations

Nearby Weather Stations

Station Location Temp. Windchill Dew Point Humidity Wind Precip. Elev Updated Type
                   

Watches & Warnings

There are currently no watches in effect.